Alburg, Vermont
Current Conditions -  °F | °C
As of 12:15 PM on Monday 22 Dec 2014 (Local Time) from KFSO Reporting Station
Haze Haze  
Wind Chill: 19°   Ceiling: 400
Heat Index: 19°   Visibility: 2.5mi
Dew Point: 18°   Wind: 0mph
Humidity: 93%   Direction: NA
Pressure: 30.38"   Gusts: NA
Location:  44.9685°N, 73.281°W
Report Text: KFSO 221615Z AUTO 00000KT 2 1/2SM BR OVC004 M07/M08 A3038 RMK AO2 T10701080
Loading
Personal Weather Stations






























Interactive Weather Map New forecast layout! Learn more

10-Day Weather Forecast

Advertisements
Track Severe Weather on mobile